Time;durP1;ratioP1;P1;durP2;ratioP2;P2;SDS_P1;SDS_P2;PMS_P1;PMS_P2;Temp;Humidity;BMP_temperature;BMP_pressure;BME280_temperature;BME280_humidity;BME280_pressure;Samples;Min_cycle;Max_cycle;Signal;HPM_P1;HPM_P2
2021/09/18 00:00:31;;;;;;;9.03;6.13;;;9.50;99.90;;;;;;5071407;28;20482;-75
2021/09/18 00:02:56;;;;;;;10.70;6.30;;;9.40;99.90;;;;;;5071577;28;20187;-75
2021/09/18 00:05:22;;;;;;;9.20;7.03;;;9.50;99.90;;;;;;5071611;28;20036;-75
2021/09/18 00:07:47;;;;;;;10.18;6.63;;;9.50;99.90;;;;;;5071264;28;20079;-75
2021/09/18 00:10:13;;;;;;;8.57;6.40;;;9.40;99.90;;;;;;5071627;28;20102;-75
2021/09/18 00:12:38;;;;;;;7.67;6.67;;;9.40;99.90;;;;;;5071299;28;20025;-75
2021/09/18 00:15:05;;;;;;;8.38;6.70;;;9.40;99.90;;;;;;5071363;28;20440;-75
2021/09/18 00:17:31;;;;;;;9.37;6.67;;;9.40;99.90;;;;;;5071044;28;20071;-75
2021/09/18 00:19:58;;;;;;;9.83;6.73;;;9.40;99.90;;;;;;5071111;28;20067;-75
2021/09/18 00:22:24;;;;;;;11.25;6.43;;;9.40;99.90;;;;;;5071094;28;20013;-75
2021/09/18 00:24:49;;;;;;;9.88;6.15;;;9.40;99.90;;;;;;5070729;28;20032;-75
2021/09/18 00:27:15;;;;;;;9.30;5.57;;;9.40;99.90;;;;;;5071169;28;20087;-75
2021/09/18 00:29:41;;;;;;;11.85;6.30;;;9.40;99.90;;;;;;5070939;28;20035;-75
2021/09/18 00:32:06;;;;;;;8.60;5.20;;;9.30;99.90;;;;;;5071059;28;20039;-75
2021/09/18 00:34:32;;;;;;;6.95;5.38;;;9.30;99.90;;;;;;5074780;28;20420;-75
2021/09/18 00:36:57;;;;;;;8.87;5.03;;;9.20;99.90;;;;;;5074417;28;20074;-75
2021/09/18 00:39:23;;;;;;;7.03;4.90;;;9.20;99.90;;;;;;5074361;28;20146;-75
2021/09/18 00:41:48;;;;;;;7.73;5.93;;;9.20;99.90;;;;;;5074364;28;20036;-75
2021/09/18 00:44:17;;;;;;;7.20;4.80;;;9.10;99.90;;;;;;5074270;28;20028;-75
2021/09/18 00:46:48;;;;;;;8.00;5.57;;;9.10;99.90;;;;;;5074453;28;20024;-75
2021/09/18 00:49:13;;;;;;;5.70;5.10;;;9.10;99.90;;;;;;5074291;28;20492;-75
2021/09/18 00:51:39;;;;;;;11.07;5.30;;;9.10;99.90;;;;;;5074415;28;20028;-75
2021/09/18 00:54:07;;;;;;;6.30;5.20;;;9.00;99.90;;;;;;5074255;28;20090;-75
2021/09/18 00:56:34;;;;;;;9.90;5.57;;;9.00;99.90;;;;;;5074858;28;20070;-75
2021/09/18 00:58:59;;;;;;;8.37;6.80;;;9.00;99.90;;;;;;5074107;28;20048;-75
2021/09/18 01:01:25;;;;;;;8.10;5.63;;;8.90;99.90;;;;;;5072759;28;20033;-75
2021/09/18 01:03:50;;;;;;;6.67;5.40;;;8.90;99.90;;;;;;5073875;28;20383;-76
2021/09/18 01:06:17;;;;;;;8.33;5.87;;;8.90;99.90;;;;;;5074352;28;20377;-75
2021/09/18 01:08:48;;;;;;;10.90;6.40;;;8.90;99.90;;;;;;5073853;28;20032;-75
2021/09/18 01:11:13;;;;;;;9.00;5.70;;;8.80;99.90;;;;;;5074021;28;20035;-75
2021/09/18 01:13:39;;;;;;;11.43;6.23;;;8.80;99.90;;;;;;5073842;28;20374;-75
2021/09/18 01:16:04;;;;;;;9.63;6.37;;;8.80;99.90;;;;;;5074071;28;20025;-75
2021/09/18 01:18:30;;;;;;;11.20;6.40;;;8.80;99.90;;;;;;5073922;28;20029;-75
2021/09/18 01:20:56;;;;;;;9.73;6.37;;;8.70;99.90;;;;;;5074020;28;20067;-75
2021/09/18 01:23:22;;;;;;;8.37;6.10;;;8.70;99.90;;;;;;5072750;28;20086;-75
2021/09/18 01:25:49;;;;;;;6.50;5.33;;;8.70;99.90;;;;;;5073795;28;20033;-75
2021/09/18 01:28:15;;;;;;;7.90;6.63;;;8.70;99.90;;;;;;5074171;28;20082;-75
2021/09/18 01:30:42;;;;;;;10.63;6.50;;;8.70;99.90;;;;;;5073672;28;20115;-75
2021/09/18 01:33:08;;;;;;;8.50;6.03;;;8.70;99.90;;;;;;5073614;28;20074;-75
2021/09/18 01:35:34;;;;;;;12.57;6.77;;;8.70;99.90;;;;;;5073638;28;20037;-75
2021/09/18 01:38:01;;;;;;;9.40;6.10;;;8.70;99.90;;;;;;5073900;28;20086;-75
2021/09/18 01:40:33;;;;;;;9.93;6.00;;;8.70;99.90;;;;;;5073396;28;20071;-73
2021/09/18 01:42:59;;;;;;;7.33;6.07;;;8.70;99.90;;;;;;5073628;28;20094;-73
2021/09/18 01:45:25;;;;;;;7.63;5.60;;;8.70;99.90;;;;;;5072766;28;20036;-73
2021/09/18 01:47:57;;;;;;;6.77;5.33;;;8.70;99.90;;;;;;5073482;28;20405;-73
2021/09/18 01:50:25;;;;;;;5.93;4.50;;;8.70;99.90;;;;;;5073204;28;20496;-73
2021/09/18 01:52:55;;;;;;;9.13;5.93;;;8.70;99.90;;;;;;5073336;28;20024;-73
2021/09/18 01:55:21;;;;;;;5.93;4.97;;;8.70;99.90;;;;;;5073395;28;20032;-73
2021/09/18 01:57:50;;;;;;;6.17;4.80;;;8.60;99.90;;;;;;5072874;28;20141;-72
2021/09/18 02:00:17;;;;;;;5.97;4.90;;;8.60;99.90;;;;;;5072921;28;20036;-73
2021/09/18 02:02:43;;;;;;;7.33;5.33;;;8.60;99.90;;;;;;5073255;28;20428;-73
2021/09/18 02:05:10;;;;;;;6.20;5.20;;;8.60;99.90;;;;;;5073130;28;20051;-73
2021/09/18 02:07:36;;;;;;;7.77;5.33;;;8.50;99.90;;;;;;5072982;28;20056;-73
2021/09/18 02:10:04;;;;;;;9.03;5.27;;;8.50;99.90;;;;;;5072959;28;20537;-73
2021/09/18 02:12:29;;;;;;;6.27;5.10;;;8.50;99.90;;;;;;5071644;28;20025;-73
2021/09/18 02:14:55;;;;;;;7.00;4.67;;;8.40;99.90;;;;;;5073338;28;20146;-73
2021/09/18 02:17:20;;;;;;;6.83;5.07;;;8.40;99.90;;;;;;5073030;28;20059;-72
2021/09/18 02:19:46;;;;;;;6.50;5.30;;;8.50;99.90;;;;;;5073064;28;20037;-73
2021/09/18 02:22:11;;;;;;;8.70;5.23;;;8.40;99.90;;;;;;5072692;28;20035;-73
2021/09/18 02:24:37;;;;;;;10.80;5.07;;;8.40;99.90;;;;;;5073070;28;20032;-72
2021/09/18 02:27:02;;;;;;;9.60;5.17;;;8.40;99.90;;;;;;5072789;28;20043;-73
2021/09/18 02:29:28;;;;;;;7.33;4.57;;;8.30;99.90;;;;;;5072737;28;20370;-73
2021/09/18 02:31:54;;;;;;;8.10;5.40;;;8.40;99.90;;;;;;5072547;28;20107;-73
2021/09/18 02:34:19;;;;;;;7.40;5.27;;;8.30;99.90;;;;;;5072637;28;20448;-73
2021/09/18 02:36:45;;;;;;;6.63;5.07;;;8.30;99.90;;;;;;5072838;28;20464;-73
2021/09/18 02:39:10;;;;;;;7.10;5.37;;;8.30;99.90;;;;;;5072931;28;20024;-72
2021/09/18 02:41:36;;;;;;;10.57;5.67;;;8.30;99.90;;;;;;5072553;28;20040;-73
2021/09/18 02:44:02;;;;;;;7.23;6.07;;;8.30;99.90;;;;;;5070926;28;20029;-73
2021/09/18 02:46:28;;;;;;;12.00;5.83;;;8.30;99.90;;;;;;5072348;28;20020;-73
2021/09/18 02:48:54;;;;;;;10.53;5.67;;;8.30;99.90;;;;;;5072376;28;20474;-73
2021/09/18 02:51:19;;;;;;;7.40;4.57;;;8.30;99.90;;;;;;5072164;28;20039;-73
2021/09/18 02:53:45;;;;;;;10.03;5.90;;;8.20;99.90;;;;;;5071244;28;20039;-73
2021/09/18 02:56:10;;;;;;;9.97;5.00;;;8.20;99.90;;;;;;5071802;28;20032;-73
2021/09/18 02:58:36;;;;;;;10.40;5.10;;;8.20;99.90;;;;;;5071960;28;20088;-73
2021/09/18 03:01:02;;;;;;;7.03;4.87;;;8.10;99.90;;;;;;5071949;28;20500;-73
2021/09/18 03:03:28;;;;;;;5.97;4.37;;;8.10;99.90;;;;;;5072056;28;20410;-73
2021/09/18 03:05:54;;;;;;;5.83;4.70;;;8.10;99.90;;;;;;5072257;28;20070;-72
2021/09/18 03:08:19;;;;;;;12.67;4.80;;;8.10;99.90;;;;;;5072146;28;20492;-73
2021/09/18 03:10:45;;;;;;;8.50;5.17;;;8.10;99.90;;;;;;5071728;28;20100;-73
2021/09/18 03:13:11;;;;;;;8.27;4.43;;;8.00;99.90;;;;;;5071900;28;20518;-73
2021/09/18 03:15:36;;;;;;;6.07;4.40;;;8.00;99.90;;;;;;5072018;28;20047;-73
2021/09/18 03:18:02;;;;;;;9.97;5.03;;;8.00;99.90;;;;;;5071978;28;20056;-73
2021/09/18 03:20:27;;;;;;;8.13;4.97;;;8.00;99.90;;;;;;5072086;28;20032;-73
2021/09/18 03:22:53;;;;;;;6.37;4.77;;;8.00;99.90;;;;;;5072051;28;20025;-73
2021/09/18 03:25:18;;;;;;;7.80;5.00;;;8.00;99.90;;;;;;5071967;28;20066;-73
2021/09/18 03:27:44;;;;;;;12.50;5.97;;;8.00;99.90;;;;;;5071895;28;20038;-73
2021/09/18 03:30:10;;;;;;;8.50;4.67;;;7.90;99.90;;;;;;5071748;28;20150;-73
2021/09/18 03:32:36;;;;;;;7.23;5.07;;;7.90;99.90;;;;;;5071893;28;20028;-72
2021/09/18 03:35:02;;;;;;;7.27;4.83;;;7.90;99.90;;;;;;5070513;28;20021;-73
2021/09/18 03:37:28;;;;;;;7.30;5.43;;;7.90;99.90;;;;;;5071939;28;20103;-73
2021/09/18 03:39:54;;;;;;;7.30;5.47;;;7.80;99.90;;;;;;5071911;28;20134;-73
2021/09/18 03:42:19;;;;;;;7.97;5.00;;;7.80;99.90;;;;;;5071876;28;20078;-74
2021/09/18 03:44:48;;;;;;;5.70;4.93;;;7.90;99.90;;;;;;5072107;28;20031;-74
2021/09/18 03:47:14;;;;;;;5.70;4.60;;;7.80;99.90;;;;;;5071834;28;20025;-74
2021/09/18 03:49:40;;;;;;;8.03;4.80;;;7.80;99.90;;;;;;5071911;28;20021;-74
2021/09/18 03:52:06;;;;;;;6.03;4.40;;;7.80;99.90;;;;;;5071708;28;20068;-74
2021/09/18 03:54:31;;;;;;;9.37;5.13;;;7.80;99.90;;;;;;5071516;28;20045;-74
2021/09/18 03:56:57;;;;;;;10.60;4.97;;;7.80;99.90;;;;;;5071471;28;20375;-74
2021/09/18 03:59:22;;;;;;;9.77;4.73;;;7.80;99.90;;;;;;5071786;28;20048;-74
2021/09/18 04:01:48;;;;;;;8.87;4.60;;;7.80;99.90;;;;;;5071460;28;20021;-74
2021/09/18 04:04:13;;;;;;;5.93;4.90;;;7.80;99.90;;;;;;5071497;28;20035;-73
2021/09/18 04:06:39;;;;;;;7.53;4.90;;;7.70;99.90;;;;;;5071511;28;20035;-73
2021/09/18 04:09:05;;;;;;;13.60;6.00;;;7.80;99.90;;;;;;5074853;28;20043;-74
2021/09/18 04:11:30;;;;;;;8.73;5.37;;;7.70;99.90;;;;;;5075269;28;20028;-74
2021/09/18 04:13:56;;;;;;;8.63;5.90;;;7.70;99.90;;;;;;5075443;28;20028;-74
2021/09/18 04:16:22;;;;;;;7.93;6.13;;;7.70;99.90;;;;;;5075633;28;20032;-74
2021/09/18 04:18:48;;;;;;;7.87;5.63;;;7.70;99.90;;;;;;5075394;28;20021;-74
2021/09/18 04:21:14;;;;;;;12.03;5.20;;;7.80;99.90;;;;;;5075348;28;20029;-74
2021/09/18 04:23:39;;;;;;;8.37;5.70;;;7.70;99.90;;;;;;5074948;28;20044;-74
2021/09/18 04:26:05;;;;;;;6.67;5.60;;;7.70;99.90;;;;;;5075137;28;20107;-74
2021/09/18 04:28:31;;;;;;;8.03;4.97;;;7.70;99.90;;;;;;5075140;28;20044;-74
2021/09/18 04:30:56;;;;;;;7.20;5.23;;;7.70;99.90;;;;;;5074865;28;20021;-74
2021/09/18 04:33:22;;;;;;;6.87;5.20;;;7.70;99.90;;;;;;5075209;28;20016;-73
2021/09/18 04:35:48;;;;;;;9.17;4.97;;;7.70;99.90;;;;;;5074931;28;20021;-74
2021/09/18 04:38:13;;;;;;;7.90;5.10;;;7.70;99.90;;;;;;5074800;28;20101;-74
2021/09/18 04:40:39;;;;;;;8.13;4.83;;;7.70;99.90;;;;;;5074753;28;20100;-74
2021/09/18 04:43:04;;;;;;;6.70;5.03;;;7.70;99.90;;;;;;5074657;28;20036;-73
2021/09/18 04:45:30;;;;;;;6.97;4.93;;;7.70;99.90;;;;;;5074584;28;20032;-73
2021/09/18 04:47:55;;;;;;;6.03;4.30;;;7.70;99.90;;;;;;5074853;28;20034;-74
2021/09/18 04:50:21;;;;;;;5.13;4.63;;;7.70;99.90;;;;;;5072931;28;20028;-74
2021/09/18 04:52:47;;;;;;;7.03;5.17;;;7.60;99.90;;;;;;5074491;28;20070;-73
2021/09/18 04:55:12;;;;;;;9.10;5.20;;;7.60;99.90;;;;;;5074565;28;20381;-73
2021/09/18 04:57:38;;;;;;;9.10;5.60;;;7.60;99.90;;;;;;5074303;28;20050;-74
2021/09/18 05:00:05;;;;;;;8.43;6.20;;;7.60;99.90;;;;;;5074535;28;20020;-73
2021/09/18 05:02:30;;;;;;;12.17;5.60;;;7.60;99.90;;;;;;5074257;28;20020;-74
2021/09/18 05:04:56;;;;;;;9.23;5.47;;;7.60;99.90;;;;;;5074486;28;20032;-74
2021/09/18 05:07:22;;;;;;;7.60;6.10;;;7.60;99.90;;;;;;5074113;28;20124;-74
2021/09/18 05:09:48;;;;;;;8.73;6.27;;;7.60;99.90;;;;;;5074124;28;20021;-74
2021/09/18 05:12:13;;;;;;;11.00;6.07;;;7.60;99.90;;;;;;5074129;28;20338;-73
2021/09/18 05:14:39;;;;;;;9.37;5.97;;;7.60;99.90;;;;;;5073970;28;20035;-74
2021/09/18 05:17:04;;;;;;;7.57;5.00;;;7.60;99.90;;;;;;5074237;28;20047;-73
2021/09/18 05:19:30;;;;;;;7.37;5.40;;;7.70;99.90;;;;;;5073021;28;20031;-74
2021/09/18 05:21:56;;;;;;;10.70;5.63;;;7.70;99.90;;;;;;5073831;28;20134;-73
2021/09/18 05:24:21;;;;;;;7.20;5.07;;;7.70;99.90;;;;;;5074088;28;20032;-74
2021/09/18 05:26:47;;;;;;;7.53;4.67;;;7.70;99.90;;;;;;5073632;28;20477;-74
2021/09/18 05:29:12;;;;;;;5.23;4.50;;;7.70;99.90;;;;;;5073628;28;20028;-74
2021/09/18 05:31:38;;;;;;;7.07;5.10;;;7.70;99.90;;;;;;5073884;28;20082;-74
2021/09/18 05:34:03;;;;;;;5.90;4.70;;;7.70;99.90;;;;;;5073645;28;20474;-74
2021/09/18 05:36:29;;;;;;;7.10;5.40;;;7.70;99.90;;;;;;5073755;28;20418;-73
2021/09/18 05:38:55;;;;;;;7.00;5.40;;;7.80;99.90;;;;;;5073610;28;20040;-74
2021/09/18 05:41:20;;;;;;;7.63;5.23;;;7.80;99.90;;;;;;5073608;28;20114;-74
2021/09/18 05:43:46;;;;;;;7.53;5.23;;;7.90;99.90;;;;;;5072504;28;20034;-74
2021/09/18 05:46:11;;;;;;;6.13;4.77;;;8.00;99.90;;;;;;5073506;28;20032;-74
2021/09/18 05:48:37;;;;;;;7.27;4.97;;;8.00;99.90;;;;;;5073538;28;20080;-73
2021/09/18 05:51:02;;;;;;;6.33;4.97;;;8.10;99.90;;;;;;5073205;28;20029;-74
2021/09/18 05:53:28;;;;;;;9.13;5.33;;;8.20;99.90;;;;;;5073431;28;20017;-74
2021/09/18 05:55:53;;;;;;;8.67;4.90;;;8.20;99.90;;;;;;5073225;28;20043;-73
2021/09/18 05:58:19;;;;;;;7.87;5.07;;;8.30;99.90;;;;;;5073075;28;20063;-74
2021/09/18 06:00:45;;;;;;;6.47;5.00;;;8.30;99.90;;;;;;5073303;28;20115;-74
2021/09/18 06:03:10;;;;;;;8.23;5.60;;;8.40;99.90;;;;;;5072910;28;20044;-74
2021/09/18 06:05:36;;;;;;;7.77;5.90;;;8.50;99.90;;;;;;5073263;28;20025;-74
2021/09/18 06:08:01;;;;;;;8.50;6.53;;;8.50;99.90;;;;;;5073114;28;20055;-74
2021/09/18 06:10:27;;;;;;;7.87;6.00;;;8.60;99.90;;;;;;5072968;28;20039;-74
2021/09/18 06:12:52;;;;;;;10.30;6.80;;;8.60;99.90;;;;;;5071811;28;20484;-74
2021/09/18 06:15:18;;;;;;;7.27;6.30;;;8.70;99.90;;;;;;5072608;28;20082;-74
2021/09/18 06:17:43;;;;;;;8.97;6.80;;;8.80;99.90;;;;;;5072880;28;20028;-74
2021/09/18 06:20:10;;;;;;;11.53;8.03;;;8.80;99.90;;;;;;5073096;28;20112;-74
2021/09/18 06:22:35;;;;;;;12.07;7.20;;;9.00;99.90;;;;;;5072842;28;20016;-74
2021/09/18 06:25:01;;;;;;;13.30;6.97;;;9.00;99.90;;;;;;5072784;28;20025;-73
2021/09/18 06:27:27;;;;;;;9.57;7.40;;;9.10;99.90;;;;;;5071433;28;20035;-74
2021/09/18 06:29:52;;;;;;;10.00;7.77;;;9.20;99.90;;;;;;5071420;28;20454;-74
2021/09/18 06:32:18;;;;;;;8.70;7.77;;;9.30;99.90;;;;;;5071001;28;20105;-74
2021/09/18 06:34:43;;;;;;;12.67;8.50;;;9.40;99.90;;;;;;5071749;28;20405;-74
2021/09/18 06:37:09;;;;;;;11.97;8.63;;;9.50;99.90;;;;;;5071413;28;20028;-74
2021/09/18 06:39:35;;;;;;;14.73;8.73;;;9.60;99.90;;;;;;5072702;28;20025;-74
2021/09/18 06:42:02;;;;;;;13.18;9.40;;;9.70;99.90;;;;;;5072613;28;20073;-74
2021/09/18 06:44:27;;;;;;;12.03;9.40;;;9.90;99.90;;;;;;5072497;28;20452;-74
2021/09/18 06:46:53;;;;;;;14.82;9.85;;;10.00;99.90;;;;;;5072579;28;20064;-74
2021/09/18 06:49:18;;;;;;;15.05;9.85;;;10.10;99.90;;;;;;5070795;28;20077;-74
2021/09/18 06:51:44;;;;;;;13.03;9.50;;;10.20;99.90;;;;;;5072476;28;20032;-74
2021/09/18 06:54:10;;;;;;;12.65;9.50;;;10.40;99.90;;;;;;5072850;28;20036;-74
2021/09/18 06:56:35;;;;;;;13.30;9.98;;;10.50;99.90;;;;;;5072786;28;20092;-74
2021/09/18 06:59:01;;;;;;;13.18;9.55;;;10.60;99.90;;;;;;5072553;28;20528;-75
2021/09/18 07:01:27;;;;;;;12.70;8.82;;;10.80;99.90;;;;;;5072671;28;20385;-74
2021/09/18 07:03:53;;;;;;;10.88;8.52;;;11.00;99.90;;;;;;5072418;28;20024;-74
2021/09/18 07:06:19;;;;;;;11.68;9.15;;;11.10;99.90;;;;;;5072148;28;20040;-75
2021/09/18 07:08:45;;;;;;;12.85;9.18;;;11.20;99.90;;;;;;5072349;28;20392;-75
2021/09/18 07:11:10;;;;;;;11.18;8.93;;;11.30;99.90;;;;;;5072247;28;20027;-75
2021/09/18 07:13:36;;;;;;;13.32;9.05;;;11.50;99.90;;;;;;5072146;28;20115;-75
2021/09/18 07:16:02;;;;;;;13.00;9.82;;;11.60;99.90;;;;;;5070965;28;20029;-75
2021/09/18 07:18:28;;;;;;;11.18;9.23;;;11.80;99.90;;;;;;5072503;28;20017;-75
2021/09/18 07:20:54;;;;;;;13.82;9.80;;;11.90;99.90;;;;;;5072426;28;20035;-75
2021/09/18 07:23:20;;;;;;;13.32;9.75;;;12.00;99.90;;;;;;5071063;28;20078;-75
2021/09/18 07:25:46;;;;;;;13.20;10.23;;;12.20;99.90;;;;;;5070788;28;20482;-75
2021/09/18 07:28:12;;;;;;;13.35;10.10;;;12.30;99.90;;;;;;5072101;28;20058;-75
2021/09/18 07:30:37;;;;;;;13.02;9.45;;;12.40;99.90;;;;;;5072100;28;20040;-74
2021/09/18 07:33:03;;;;;;;10.63;9.50;;;12.50;99.90;;;;;;5072262;28;20025;-75
2021/09/18 07:35:28;;;;;;;12.43;8.95;;;12.70;99.90;;;;;;5072279;28;20021;-74
2021/09/18 07:37:54;;;;;;;16.70;8.95;;;12.80;99.90;;;;;;5070685;28;20382;-75
2021/09/18 07:40:20;;;;;;;14.23;9.50;;;12.90;99.90;;;;;;5072029;28;20016;-75
2021/09/18 07:42:45;;;;;;;15.55;9.98;;;13.00;99.90;;;;;;5073015;28;20021;-75
2021/09/18 07:45:11;;;;;;;13.35;10.07;;;13.10;99.90;;;;;;5076129;28;20024;-75
2021/09/18 07:47:37;;;;;;;10.80;9.45;;;13.20;99.90;;;;;;5076109;28;20489;-75
2021/09/18 07:50:04;;;;;;;11.00;9.25;;;13.40;99.90;;;;;;5076109;28;20059;-74
2021/09/18 07:52:30;;;;;;;11.13;9.45;;;13.50;99.90;;;;;;5076060;28;20431;-75
2021/09/18 07:54:56;;;;;;;11.85;9.27;;;13.60;99.90;;;;;;5076007;28;20023;-75
2021/09/18 07:57:21;;;;;;;11.88;9.63;;;13.80;99.90;;;;;;5075936;28;20017;-75
2021/09/18 07:59:47;;;;;;;12.00;9.02;;;13.90;99.90;;;;;;5075811;28;20147;-75
2021/09/18 08:02:13;;;;;;;10.77;9.18;;;14.00;99.90;;;;;;5075435;28;20032;-75
2021/09/18 08:04:38;;;;;;;9.50;8.40;;;14.10;99.90;;;;;;5075718;28;20037;-75
2021/09/18 08:07:04;;;;;;;10.80;8.80;;;14.10;99.90;;;;;;5075760;28;20039;-75
2021/09/18 08:09:30;;;;;;;11.18;9.10;;;14.20;99.90;;;;;;5075634;28;20100;-75
2021/09/18 08:11:57;;;;;;;11.20;8.88;;;14.30;99.90;;;;;;5075474;28;20020;-75
2021/09/18 08:14:22;;;;;;;10.10;8.05;;;14.40;99.90;;;;;;5075214;28;20479;-75
2021/09/18 08:16:48;;;;;;;9.43;8.18;;;14.50;99.90;;;;;;5075397;28;20103;-75
2021/09/18 08:19:15;;;;;;;11.02;8.85;;;14.50;99.90;;;;;;5075507;28;20029;-74
2021/09/18 08:21:41;;;;;;;10.65;9.00;;;14.60;99.90;;;;;;5075302;28;20024;-74
2021/09/18 08:24:07;;;;;;;10.80;9.60;;;14.70;99.90;;;;;;5073843;28;20523;-74
2021/09/18 08:26:32;;;;;;;11.55;8.75;;;14.80;99.90;;;;;;5075199;28;20508;-74
2021/09/18 08:28:59;;;;;;;11.95;9.02;;;14.80;99.90;;;;;;5075728;28;20059;-74
2021/09/18 08:31:25;;;;;;;9.05;7.57;;;14.90;99.90;;;;;;5075162;28;20028;-74
2021/09/18 08:33:52;;;;;;;9.68;8.10;;;15.00;99.90;;;;;;5073838;28;20115;-74
2021/09/18 08:36:17;;;;;;;11.30;7.95;;;15.10;99.90;;;;;;5075272;28;20418;-74
2021/09/18 08:38:43;;;;;;;8.60;7.32;;;15.20;99.90;;;;;;5075289;28;20020;-74
2021/09/18 08:41:09;;;;;;;11.77;8.05;;;15.30;99.90;;;;;;5075100;28;20025;-74
2021/09/18 08:43:35;;;;;;;10.38;8.38;;;15.40;99.90;;;;;;5075212;28;20476;-74
2021/09/18 08:46:01;;;;;;;10.10;7.60;;;15.50;99.90;;;;;;5074969;28;20020;-74
2021/09/18 08:48:27;;;;;;;10.90;7.25;;;15.60;99.90;;;;;;5074578;28;20039;-74
2021/09/18 08:50:52;;;;;;;11.13;8.00;;;15.70;99.90;;;;;;5075055;28;20052;-74
2021/09/18 08:53:21;;;;;;;10.18;7.63;;;15.80;99.90;;;;;;5074948;28;20020;-74
2021/09/18 08:55:54;;;;;;;11.20;7.68;;;15.90;99.90;;;;;;5074627;28;20024;-74
2021/09/18 08:58:20;;;;;;;8.07;6.88;;;16.10;99.90;;;;;;5074574;28;20032;-74
2021/09/18 09:00:51;;;;;;;9.25;6.75;;;16.10;99.90;;;;;;5074508;28;20484;-74
2021/09/18 09:03:43;;;;;;;8.95;6.80;;;16.20;99.90;;;;;;5074750;28;20512;-74
2021/09/18 09:06:13;;;;;;;8.77;6.50;;;16.30;99.90;;;;;;5070652;28;20132;-74
2021/09/18 09:08:42;;;;;;;9.20;6.70;;;16.40;99.90;;;;;;5074129;28;20064;-74
2021/09/18 09:11:19;;;;;;;7.72;6.35;;;16.50;99.90;;;;;;5074433;28;20062;-74
2021/09/18 09:13:54;;;;;;;9.93;6.53;;;16.60;99.90;;;;;;5072964;28;20024;-74
2021/09/18 09:16:20;;;;;;;9.27;6.38;;;16.70;99.90;;;;;;5074411;28;20025;-74
2021/09/18 09:18:47;;;;;;;8.95;5.53;;;16.80;99.90;;;;;;5074116;28;20525;-74
2021/09/18 09:21:20;;;;;;;5.57;4.75;;;17.00;99.90;;;;;;5074426;28;20023;-74
2021/09/18 09:24:07;;;;;;;7.18;4.78;;;17.10;99.90;;;;;;5074336;28;20021;-74
2021/09/18 09:26:38;;;;;;;7.18;4.60;;;17.30;99.90;;;;;;5074194;28;20032;-74
2021/09/18 09:29:03;;;;;;;6.30;4.75;;;17.40;99.90;;;;;;5074068;28;20028;-74
2021/09/18 09:31:32;;;;;;;5.88;4.90;;;17.50;99.90;;;;;;5074234;28;20036;-74
2021/09/18 09:34:03;;;;;;;6.22;4.15;;;17.80;99.90;;;;;;5074216;28;20024;-74
2021/09/18 09:36:34;;;;;;;5.70;4.25;;;17.90;99.90;;;;;;5074003;28;20082;-74
2021/09/18 09:39:02;;;;;;;4.85;4.10;;;18.10;99.90;;;;;;5073908;28;20029;-74
2021/09/18 09:41:38;;;;;;;9.63;4.40;;;18.30;99.90;;;;;;5073980;28;20469;-75
2021/09/18 09:44:12;;;;;;;7.25;4.57;;;18.40;99.90;;;;;;5073657;28;20377;-75
2021/09/18 09:46:38;;;;;;;5.65;4.32;;;18.50;99.90;;;;;;5072214;28;20061;-75
2021/09/18 09:49:05;;;;;;;6.60;4.63;;;18.70;99.90;;;;;;5073724;28;20107;-74
2021/09/18 09:51:30;;;;;;;4.13;3.17;;;18.80;99.90;;;;;;5073919;28;20021;-74
2021/09/18 09:54:13;;;;;;;5.38;3.10;;;18.90;99.90;;;;;;5073696;28;20047;-74
2021/09/18 09:56:39;;;;;;;4.75;3.30;;;19.10;99.90;;;;;;5073775;28;20469;-74
2021/09/18 09:59:05;;;;;;;6.32;3.85;;;19.20;99.90;;;;;;5073611;28;20052;-74
2021/09/18 10:01:30;;;;;;;4.03;3.22;;;19.50;99.90;;;;;;5073973;28;20126;-74
2021/09/18 10:03:56;;;;;;;6.55;3.45;;;19.40;99.90;;;;;;5073818;28;20020;-74
2021/09/18 10:06:23;;;;;;;6.32;3.28;;;19.60;99.90;;;;;;5073181;28;20139;-74
2021/09/18 10:08:51;;;;;;;4.40;3.13;;;19.70;99.90;;;;;;5071917;28;20021;-75
2021/09/18 10:11:30;;;;;;;5.82;2.55;;;20.00;99.90;;;;;;5073420;28;20024;-75
2021/09/18 10:13:56;;;;;;;4.25;2.65;;;20.10;99.90;;;;;;5073271;28;20025;-74
2021/09/18 10:16:26;;;;;;;3.40;2.63;;;20.30;99.90;;;;;;5073073;28;20025;-75
2021/09/18 10:18:55;;;;;;;3.22;2.58;;;20.40;99.90;;;;;;5073349;28;20024;-75
2021/09/18 10:24:05;;;;;;;3.83;2.50;;;20.70;99.90;;;;;;5073492;28;20036;-75
2021/09/18 10:26:31;;;;;;;3.72;2.88;;;20.60;99.90;;;;;;5073106;28;20021;-75
2021/09/18 10:29:00;;;;;;;3.53;2.70;;;20.60;99.90;;;;;;5072871;28;20377;-75
2021/09/18 10:31:26;;;;;;;6.57;2.40;;;20.90;99.90;;;;;;5072817;28;20150;-75
2021/09/18 10:33:53;;;;;;;5.82;2.53;;;20.80;99.90;;;;;;5073166;28;20521;-75
2021/09/18 10:36:31;;;;;;;3.75;2.90;;;21.00;99.90;;;;;;5073157;28;20024;-75
2021/09/18 10:39:23;;;;;;;4.93;2.40;;;21.10;99.90;;;;;;5072676;28;20025;-75
2021/09/18 10:41:49;;;;;;;3.22;2.80;;;21.20;99.90;;;;;;5070509;28;20075;-75
2021/09/18 10:44:19;;;;;;;4.30;2.85;;;21.40;99.90;;;;;;5072476;28;20037;-75
2021/09/18 10:46:51;;;;;;;3.75;2.67;;;21.40;99.90;;;;;;5072516;28;20232;-75
2021/09/18 10:49:34;;;;;;;4.32;2.17;;;21.50;99.90;;;;;;5072328;28;20104;-75
2021/09/18 10:52:22;;;;;;;2.72;1.80;;;21.60;99.90;;;;;;5072632;28;20020;-75
2021/09/18 10:55:07;;;;;;;2.63;2.00;;;21.70;99.90;;;;;;5072428;28;20511;-75
2021/09/18 10:57:39;;;;;;;2.42;1.77;;;21.80;99.90;;;;;;5072140;28;20082;-75
2021/09/18 11:00:29;;;;;;;2.58;1.80;;;21.70;99.90;;;;;;5071927;28;20029;-75
2021/09/18 11:02:59;;;;;;;2.20;1.50;;;21.30;99.90;;;;;;5071699;28;20533;-75
2021/09/18 11:05:27;;;;;;;3.08;1.80;;;21.10;99.90;;;;;;5072311;28;20035;-75
2021/09/18 11:07:58;;;;;;;3.05;1.95;;;21.20;99.90;;;;;;5072369;28;20024;-74
2021/09/18 11:10:23;;;;;;;3.33;1.90;;;21.30;99.90;;;;;;5072085;28;20020;-75
2021/09/18 11:13:07;;;;;;;2.03;1.65;;;21.30;99.90;;;;;;5072159;28;20365;-75
2021/09/18 11:15:46;;;;;;;3.45;1.90;;;21.40;99.90;;;;;;5071962;28;20021;-75
2021/09/18 11:18:31;;;;;;;3.10;2.03;;;21.30;99.90;;;;;;5070734;28;20480;-76
2021/09/18 11:21:00;;;;;;;3.00;2.03;;;21.40;99.90;;;;;;5071046;28;20158;-76
2021/09/18 11:23:38;;;;;;;2.55;2.03;;;21.60;99.90;;;;;;5072026;28;20059;-76
2021/09/18 11:26:35;;;;;;;3.05;2.20;;;21.70;99.90;;;;;;5072008;28;20174;-77
2021/09/18 11:29:30;;;;;;;2.95;2.30;;;21.70;99.90;;;;;;5072036;28;20029;-76
2021/09/18 11:32:01;;;;;;;2.87;2.23;;;21.80;99.90;;;;;;5070479;28;20123;-76
2021/09/18 11:34:29;;;;;;;3.33;2.40;;;21.80;99.90;;;;;;5071850;28;20679;-75
2021/09/18 11:36:57;;;;;;;4.10;2.50;;;21.90;99.90;;;;;;5071853;28;20029;-75
2021/09/18 11:39:48;;;;;;;3.38;2.55;;;22.20;99.90;;;;;;5071652;28;20020;-75
2021/09/18 11:42:36;;;;;;;4.45;2.92;;;22.00;99.90;;;;;;5072062;28;20025;-75
2021/09/18 11:45:14;;;;;;;4.03;2.67;;;21.80;99.90;;;;;;5071955;28;20477;-76
2021/09/18 11:47:43;;;;;;;3.30;2.20;;;21.80;99.90;;;;;;5070255;28;20040;-76
2021/09/18 11:50:27;;;;;;;3.53;2.72;;;21.80;99.90;;;;;;5071887;28;20103;-75
2021/09/18 11:53:05;;;;;;;3.45;2.50;;;21.90;99.90;;;;;;5071750;28;20020;-76
2021/09/18 11:55:32;;;;;;;3.95;2.28;;;21.80;99.90;;;;;;5070509;28;20044;-76
2021/09/18 11:58:13;;;;;;;3.33;2.45;;;21.80;99.90;;;;;;5071463;28;20052;-76
2021/09/18 12:00:47;;;;;;;2.55;2.17;;;21.70;99.90;;;;;;5071231;28;20020;-76
2021/09/18 12:03:14;;;;;;;3.20;2.33;;;21.60;99.90;;;;;;5071992;28;20035;-76
2021/09/18 12:05:40;;;;;;;2.13;1.92;;;21.60;99.90;;;;;;5071795;28;20051;-76
2021/09/18 12:08:08;;;;;;;3.22;2.00;;;21.70;99.90;;;;;;5071492;28;20028;-75
2021/09/18 12:10:34;;;;;;;2.80;1.98;;;22.00;99.90;;;;;;5071481;28;20029;-76
2021/09/18 12:13:01;;;;;;;2.92;2.05;;;22.00;99.90;;;;;;5071384;28;20501;-76
2021/09/18 12:15:32;;;;;;;1.98;1.60;;;22.00;99.90;;;;;;5071571;28;20487;-76
2021/09/18 12:17:58;;;;;;;2.78;2.03;;;22.00;99.90;;;;;;5071167;28;20037;-76
2021/09/18 12:20:23;;;;;;;2.25;1.80;;;22.10;99.90;;;;;;5071441;28;20082;-76
2021/09/18 12:22:49;;;;;;;2.60;1.85;;;22.10;99.90;;;;;;5071197;28;20071;-76
2021/09/18 12:25:15;;;;;;;3.25;2.35;;;22.20;99.90;;;;;;5071257;28;20082;-76
2021/09/18 12:27:41;;;;;;;1.90;1.67;;;22.30;99.90;;;;;;5071313;28;20427;-76
2021/09/18 12:30:09;;;;;;;2.20;2.00;;;22.40;99.90;;;;;;5073882;28;20386;-76
2021/09/18 12:32:35;;;;;;;2.67;2.05;;;22.30;99.90;;;;;;5074770;28;20520;-76
2021/09/18 12:35:08;;;;;;;2.75;2.15;;;22.30;99.90;;;;;;5074882;28;20060;-76
2021/09/18 12:37:40;;;;;;;4.22;2.17;;;22.30;99.90;;;;;;5075043;28;20057;-76
2021/09/18 12:40:19;;;;;;;2.83;2.00;;;22.40;99.90;;;;;;5074945;28;20021;-76
2021/09/18 12:43:16;;;;;;;2.78;1.83;;;22.40;99.90;;;;;;5075041;28;20054;-76
2021/09/18 12:45:43;;;;;;;2.63;1.80;;;22.40;99.90;;;;;;5075052;28;20477;-76
2021/09/18 12:48:10;;;;;;;3.25;1.80;;;22.20;99.90;;;;;;5074942;28;20052;-75
2021/09/18 12:50:46;;;;;;;2.70;2.00;;;21.80;99.90;;;;;;5074937;28;20026;-75
2021/09/18 12:53:24;;;;;;;1.80;1.40;;;21.40;99.90;;;;;;5074726;28;20025;-75
2021/09/18 12:56:14;;;;;;;2.03;1.50;;;21.00;99.90;;;;;;5074957;28;20021;-75